Whiskey Mac — ZNOQ4 — position and weather

sailwx.info

Track history (hours):
 
Tides and Currents Weather Stations Pressure Air Temp Water Temp Dewpoint Dewpoint Depression Visibility Wind Speed Wind Dir Waves Ship Positions

Whiskey Mac

Last reported at 2018-Jun-17 15:30 UTC. Time now 2018-Jun-18 00:20 UTC.
Position N 47°34' W 002°54'.

Length 13 m.

Type: Sailing vessel. MMSI: 235060898.

Date/timePositionNaut miles runAvg speedWind from/ knotsBaromVisibWave heightAir tempDewpointWater temp
2018-Jun-17 15:30N 47°34' W 002°54'3 6.0
2018-Jun-17 15:00N 47°32' W 002°56'3 6.4
2018-Jun-17 14:30N 47°31' W 003°00'3 6.1
2018-Jun-17 14:00N 47°30' W 003°05'1 0.0
2018-Jun-15 17:25N 47°29' W 003°06'0 0.0
2018-Jun-15 16:40N 47°29' W 003°06'0 0.0
2018-Jun-15 16:25N 47°29' W 003°06'0 0.0
2018-Jun-15 15:49N 47°29' W 003°06'0 0.0
2018-Jun-15 15:25N 47°29' W 003°06'0 0.0
2018-Jun-15 14:49N 47°29' W 003°06'0 0.3
2018-Jun-15 14:30N 47°29' W 003°06'2 3.7
2018-Jun-15 13:59N 47°28' W 003°04'2 4.1
2018-Jun-15 13:24N 47°26' W 003°05'3 6.7
2018-Jun-15 13:00N 47°28' W 003°08'3 6.6
2018-Jun-15 12:30N 47°30' W 003°11'3 6.3
2018-Jun-15 12:00N 47°32' W 003°15'3 5.8
2018-Jun-15 11:30N 47°34' W 003°18'3 5.2
2018-Jun-15 11:00N 47°36' W 003°21'3 5.4
2018-Jun-15 10:30N 47°38' W 003°23'2 4.8
2018-Jun-15 10:00N 47°39' W 003°27'0 0.0
2018-Jun-13 08:05N 47°39' W 003°27'0 0.0
2018-Jun-13 07:59N 47°39' W 003°27'0 0.0
2018-Jun-13 07:29N 47°39' W 003°27'1 1.4
2018-Jun-13 07:00N 47°39' W 003°27'4 5.3
2018-Jun-13 06:19N 47°41' W 003°32'  
Track history (hours):
 
Tides and Currents Weather Stations Pressure Air Temp Water Temp Dewpoint Dewpoint Depression Visibility Wind Speed Wind Dir Waves Ship Positions

Whiskey Mac

Last reported at 2018-Jun-17 15:30 UTC. Time now 2018-Jun-18 00:20 UTC.
Position N 47°34' W 002°54'.

Length 13 m.

Type: Sailing vessel. MMSI: 235060898.

Date/timePositionNaut miles runAvg speedWind from/ knotsBaromVisibWave heightAir tempDewpointWater temp
2018-Jun-17 15:30N 47°34' W 002°54'3 6.0
2018-Jun-17 15:00N 47°32' W 002°56'3 6.4
2018-Jun-17 14:30N 47°31' W 003°00'3 6.1
2018-Jun-17 14:00N 47°30' W 003°05'1 0.0
2018-Jun-15 17:25N 47°29' W 003°06'0 0.0
2018-Jun-15 16:40N 47°29' W 003°06'0 0.0
2018-Jun-15 16:25N 47°29' W 003°06'0 0.0
2018-Jun-15 15:49N 47°29' W 003°06'0 0.0
2018-Jun-15 15:25N 47°29' W 003°06'0 0.0
2018-Jun-15 14:49N 47°29' W 003°06'0 0.3
2018-Jun-15 14:30N 47°29' W 003°06'2 3.7
2018-Jun-15 13:59N 47°28' W 003°04'2 4.1
2018-Jun-15 13:24N 47°26' W 003°05'3 6.7
2018-Jun-15 13:00N 47°28' W 003°08'3 6.6
2018-Jun-15 12:30N 47°30' W 003°11'3 6.3
2018-Jun-15 12:00N 47°32' W 003°15'3 5.8
2018-Jun-15 11:30N 47°34' W 003°18'3 5.2
2018-Jun-15 11:00N 47°36' W 003°21'3 5.4
2018-Jun-15 10:30N 47°38' W 003°23'2 4.8
2018-Jun-15 10:00N 47°39' W 003°27'0 0.0
2018-Jun-13 08:05N 47°39' W 003°27'0 0.0
2018-Jun-13 07:59N 47°39' W 003°27'0 0.0
2018-Jun-13 07:29N 47°39' W 003°27'1 1.4
2018-Jun-13 07:00N 47°39' W 003°27'4 5.3
2018-Jun-13 06:19N 47°41' W 003°32'  

Dump ship's entire track history